sensor_id;sensor_type;location;lat;lon;timestamp;P1;durP1;ratioP1;P2;durP2;ratioP2
36001;SDS011;22070;50.922;5.430;2023-07-31T00:02:15;8.77;;;3.43;;
36001;SDS011;22070;50.922;5.430;2023-07-31T00:04:41;11.77;;;3.50;;
36001;SDS011;22070;50.922;5.430;2023-07-31T00:07:06;14.57;;;3.80;;
36001;SDS011;22070;50.922;5.430;2023-07-31T00:09:32;15.17;;;4.00;;
36001;SDS011;22070;50.922;5.430;2023-07-31T00:11:58;14.30;;;4.10;;
36001;SDS011;22070;50.922;5.430;2023-07-31T00:14:24;10.93;;;3.40;;
36001;SDS011;22070;50.922;5.430;2023-07-31T00:16:50;14.50;;;3.80;;
36001;SDS011;22070;50.922;5.430;2023-07-31T00:19:15;11.13;;;3.57;;
36001;SDS011;22070;50.922;5.430;2023-07-31T00:21:41;14.63;;;3.63;;
36001;SDS011;22070;50.922;5.430;2023-07-31T00:24:06;11.53;;;4.40;;
36001;SDS011;22070;50.922;5.430;2023-07-31T00:26:32;10.93;;;3.60;;
36001;SDS011;22070;50.922;5.430;2023-07-31T00:28:58;14.43;;;4.10;;
36001;SDS011;22070;50.922;5.430;2023-07-31T00:31:23;12.47;;;3.90;;
36001;SDS011;22070;50.922;5.430;2023-07-31T00:33:49;17.20;;;4.23;;
36001;SDS011;22070;50.922;5.430;2023-07-31T00:36:14;13.10;;;4.07;;
36001;SDS011;22070;50.922;5.430;2023-07-31T00:38:40;14.83;;;4.13;;
36001;SDS011;22070;50.922;5.430;2023-07-31T00:41:06;13.20;;;3.70;;
36001;SDS011;22070;50.922;5.430;2023-07-31T00:43:31;12.23;;;3.53;;
36001;SDS011;22070;50.922;5.430;2023-07-31T00:45:57;17.73;;;4.47;;
36001;SDS011;22070;50.922;5.430;2023-07-31T00:48:22;9.90;;;4.00;;
36001;SDS011;22070;50.922;5.430;2023-07-31T00:50:48;12.43;;;3.93;;
36001;SDS011;22070;50.922;5.430;2023-07-31T00:53:15;14.43;;;4.22;;
36001;SDS011;22070;50.922;5.430;2023-07-31T00:55:40;11.67;;;4.20;;
36001;SDS011;22070;50.922;5.430;2023-07-31T00:58:07;13.38;;;4.22;;
36001;SDS011;22070;50.922;5.430;2023-07-31T01:00:33;15.50;;;4.63;;
36001;SDS011;22070;50.922;5.430;2023-07-31T01:02:58;11.57;;;3.80;;
36001;SDS011;22070;50.922;5.430;2023-07-31T01:05:46;11.60;;;4.20;;
36001;SDS011;22070;50.922;5.430;2023-07-31T01:08:33;13.02;;;3.83;;
36001;SDS011;22070;50.922;5.430;2023-07-31T01:11:19;10.43;;;3.88;;
36001;SDS011;22070;50.922;5.430;2023-07-31T01:13:52;10.90;;;3.40;;
36001;SDS011;22070;50.922;5.430;2023-07-31T01:18:44;14.67;;;3.90;;
36001;SDS011;22070;50.922;5.430;2023-07-31T01:26:49;10.73;;;3.60;;
36001;SDS011;22070;50.922;5.430;2023-07-31T01:29:29;12.85;;;3.67;;
36001;SDS011;22070;50.922;5.430;2023-07-31T01:32:02;8.60;;;3.63;;
36001;SDS011;22070;50.922;5.430;2023-07-31T01:34:29;12.25;;;4.20;;
36001;SDS011;22070;50.922;5.430;2023-07-31T01:36:56;14.30;;;4.35;;
36001;SDS011;22070;50.922;5.430;2023-07-31T01:39:23;9.35;;;3.50;;
36001;SDS011;22070;50.922;5.430;2023-07-31T01:41:49;8.60;;;3.87;;
36001;SDS011;22070;50.922;5.430;2023-07-31T01:44:14;12.60;;;4.50;;
36001;SDS011;22070;50.922;5.430;2023-07-31T01:46:40;12.67;;;4.27;;
36001;SDS011;22070;50.922;5.430;2023-07-31T01:49:06;12.20;;;4.67;;
36001;SDS011;22070;50.922;5.430;2023-07-31T01:51:31;14.13;;;5.07;;
36001;SDS011;22070;50.922;5.430;2023-07-31T01:54:01;12.02;;;4.13;;
36001;SDS011;22070;50.922;5.430;2023-07-31T01:56:26;12.77;;;4.65;;
36001;SDS011;22070;50.922;5.430;2023-07-31T01:58:52;20.30;;;4.40;;
36001;SDS011;22070;50.922;5.430;2023-07-31T02:01:18;12.30;;;4.47;;
36001;SDS011;22070;50.922;5.430;2023-07-31T02:03:44;14.43;;;4.70;;
36001;SDS011;22070;50.922;5.430;2023-07-31T02:06:09;12.27;;;4.33;;
36001;SDS011;22070;50.922;5.430;2023-07-31T02:08:35;10.57;;;4.20;;
36001;SDS011;22070;50.922;5.430;2023-07-31T02:11:01;12.43;;;4.70;;
36001;SDS011;22070;50.922;5.430;2023-07-31T02:13:27;14.87;;;5.27;;
36001;SDS011;22070;50.922;5.430;2023-07-31T02:15:52;12.27;;;4.70;;
36001;SDS011;22070;50.922;5.430;2023-07-31T02:18:18;14.60;;;4.77;;
36001;SDS011;22070;50.922;5.430;2023-07-31T02:20:48;14.17;;;4.30;;
36001;SDS011;22070;50.922;5.430;2023-07-31T02:23:18;13.13;;;4.45;;
36001;SDS011;22070;50.922;5.430;2023-07-31T02:25:44;13.75;;;4.50;;
36001;SDS011;22070;50.922;5.430;2023-07-31T02:28:10;8.33;;;4.33;;
36001;SDS011;22070;50.922;5.430;2023-07-31T02:30:36;10.27;;;4.30;;
36001;SDS011;22070;50.922;5.430;2023-07-31T02:33:01;13.90;;;4.53;;
36001;SDS011;22070;50.922;5.430;2023-07-31T02:35:27;11.43;;;4.17;;
36001;SDS011;22070;50.922;5.430;2023-07-31T02:37:53;8.77;;;3.73;;
36001;SDS011;22070;50.922;5.430;2023-07-31T02:40:18;7.23;;;4.23;;
36001;SDS011;22070;50.922;5.430;2023-07-31T02:42:44;8.83;;;3.90;;
36001;SDS011;22070;50.922;5.430;2023-07-31T02:45:10;12.50;;;4.27;;
36001;SDS011;22070;50.922;5.430;2023-07-31T02:47:35;10.47;;;4.47;;
36001;SDS011;22070;50.922;5.430;2023-07-31T02:50:02;11.13;;;4.60;;
36001;SDS011;22070;50.922;5.430;2023-07-31T02:52:28;8.23;;;4.22;;
36001;SDS011;22070;50.922;5.430;2023-07-31T02:54:53;11.20;;;4.53;;
36001;SDS011;22070;50.922;5.430;2023-07-31T02:57:19;13.13;;;4.63;;
36001;SDS011;22070;50.922;5.430;2023-07-31T02:59:45;9.23;;;4.67;;
36001;SDS011;22070;50.922;5.430;2023-07-31T03:02:10;11.83;;;4.13;;
36001;SDS011;22070;50.922;5.430;2023-07-31T03:04:37;9.18;;;4.70;;
36001;SDS011;22070;50.922;5.430;2023-07-31T03:07:02;9.10;;;4.63;;
36001;SDS011;22070;50.922;5.430;2023-07-31T03:09:28;9.33;;;4.30;;
36001;SDS011;22070;50.922;5.430;2023-07-31T03:11:54;10.37;;;4.30;;
36001;SDS011;22070;50.922;5.430;2023-07-31T03:14:19;10.60;;;4.30;;
36001;SDS011;22070;50.922;5.430;2023-07-31T03:16:45;8.97;;;4.80;;
36001;SDS011;22070;50.922;5.430;2023-07-31T03:19:11;9.03;;;4.90;;
36001;SDS011;22070;50.922;5.430;2023-07-31T03:21:36;10.63;;;5.00;;
36001;SDS011;22070;50.922;5.430;2023-07-31T03:24:02;9.23;;;4.40;;
36001;SDS011;22070;50.922;5.430;2023-07-31T03:26:30;9.52;;;4.28;;
36001;SDS011;22070;50.922;5.430;2023-07-31T03:28:56;10.77;;;4.38;;
36001;SDS011;22070;50.922;5.430;2023-07-31T03:31:22;14.17;;;4.57;;
36001;SDS011;22070;50.922;5.430;2023-07-31T03:33:47;10.60;;;4.63;;
36001;SDS011;22070;50.922;5.430;2023-07-31T03:36:13;11.70;;;4.50;;
36001;SDS011;22070;50.922;5.430;2023-07-31T03:38:39;9.30;;;4.47;;
36001;SDS011;22070;50.922;5.430;2023-07-31T03:41:04;7.33;;;4.10;;
36001;SDS011;22070;50.922;5.430;2023-07-31T03:43:31;8.25;;;4.38;;
36001;SDS011;22070;50.922;5.430;2023-07-31T03:45:58;9.45;;;3.95;;
36001;SDS011;22070;50.922;5.430;2023-07-31T03:48:25;7.60;;;3.63;;
36001;SDS011;22070;50.922;5.430;2023-07-31T03:50:51;8.73;;;4.00;;
36001;SDS011;22070;50.922;5.430;2023-07-31T03:53:16;8.27;;;3.90;;
36001;SDS011;22070;50.922;5.430;2023-07-31T03:55:42;6.17;;;3.87;;
36001;SDS011;22070;50.922;5.430;2023-07-31T03:58:07;13.07;;;4.30;;
36001;SDS011;22070;50.922;5.430;2023-07-31T04:00:33;4.93;;;2.90;;
36001;SDS011;22070;50.922;5.430;2023-07-31T04:02:59;8.20;;;3.83;;
36001;SDS011;22070;50.922;5.430;2023-07-31T04:05:24;11.37;;;4.03;;
36001;SDS011;22070;50.922;5.430;2023-07-31T04:07:50;6.43;;;3.50;;
36001;SDS011;22070;50.922;5.430;2023-07-31T04:10:16;8.43;;;3.70;;
36001;SDS011;22070;50.922;5.430;2023-07-31T04:12:41;9.70;;;4.00;;
36001;SDS011;22070;50.922;5.430;2023-07-31T04:15:07;8.03;;;3.77;;
36001;SDS011;22070;50.922;5.430;2023-07-31T04:17:33;6.97;;;4.00;;
36001;SDS011;22070;50.922;5.430;2023-07-31T04:19:59;5.83;;;3.40;;
36001;SDS011;22070;50.922;5.430;2023-07-31T04:22:24;7.37;;;3.50;;
36001;SDS011;22070;50.922;5.430;2023-07-31T04:24:50;8.20;;;2.90;;
36001;SDS011;22070;50.922;5.430;2023-07-31T04:27:16;5.93;;;3.30;;
36001;SDS011;22070;50.922;5.430;2023-07-31T04:29:41;6.87;;;3.50;;
36001;SDS011;22070;50.922;5.430;2023-07-31T04:32:09;7.85;;;3.90;;
36001;SDS011;22070;50.922;5.430;2023-07-31T04:34:34;11.50;;;3.40;;
36001;SDS011;22070;50.922;5.430;2023-07-31T04:37:00;7.87;;;3.73;;
36001;SDS011;22070;50.922;5.430;2023-07-31T04:39:26;9.53;;;3.83;;
36001;SDS011;22070;50.922;5.430;2023-07-31T04:41:51;4.80;;;3.17;;
36001;SDS011;22070;50.922;5.430;2023-07-31T04:44:17;6.87;;;3.73;;
36001;SDS011;22070;50.922;5.430;2023-07-31T04:46:42;12.00;;;4.20;;
36001;SDS011;22070;50.922;5.430;2023-07-31T04:49:08;8.20;;;3.40;;
36001;SDS011;22070;50.922;5.430;2023-07-31T04:51:34;6.97;;;3.50;;
36001;SDS011;22070;50.922;5.430;2023-07-31T04:53:59;7.43;;;3.30;;
36001;SDS011;22070;50.922;5.430;2023-07-31T04:56:25;7.57;;;3.67;;
36001;SDS011;22070;50.922;5.430;2023-07-31T04:58:50;5.93;;;3.37;;
36001;SDS011;22070;50.922;5.430;2023-07-31T05:01:16;7.97;;;3.87;;
36001;SDS011;22070;50.922;5.430;2023-07-31T05:03:42;8.83;;;3.70;;
36001;SDS011;22070;50.922;5.430;2023-07-31T05:06:07;8.10;;;3.47;;
36001;SDS011;22070;50.922;5.430;2023-07-31T05:08:33;7.73;;;4.00;;
36001;SDS011;22070;50.922;5.430;2023-07-31T05:10:59;8.13;;;3.43;;
36001;SDS011;22070;50.922;5.430;2023-07-31T05:13:24;8.17;;;4.10;;
36001;SDS011;22070;50.922;5.430;2023-07-31T05:15:50;9.10;;;4.20;;
36001;SDS011;22070;50.922;5.430;2023-07-31T05:18:15;8.37;;;4.27;;
36001;SDS011;22070;50.922;5.430;2023-07-31T05:20:41;6.70;;;3.73;;
36001;SDS011;22070;50.922;5.430;2023-07-31T05:23:07;13.63;;;4.13;;
36001;SDS011;22070;50.922;5.430;2023-07-31T05:25:32;8.17;;;3.90;;
36001;SDS011;22070;50.922;5.430;2023-07-31T05:27:58;10.53;;;3.97;;
36001;SDS011;22070;50.922;5.430;2023-07-31T05:30:23;8.20;;;3.93;;
36001;SDS011;22070;50.922;5.430;2023-07-31T05:32:49;9.57;;;3.80;;
36001;SDS011;22070;50.922;5.430;2023-07-31T05:35:15;7.70;;;3.70;;
36001;SDS011;22070;50.922;5.430;2023-07-31T05:37:40;7.13;;;3.57;;
36001;SDS011;22070;50.922;5.430;2023-07-31T05:40:06;10.70;;;4.37;;
36001;SDS011;22070;50.922;5.430;2023-07-31T05:42:32;7.07;;;3.80;;
36001;SDS011;22070;50.922;5.430;2023-07-31T05:44:58;8.33;;;3.63;;
36001;SDS011;22070;50.922;5.430;2023-07-31T05:47:23;9.77;;;3.47;;
36001;SDS011;22070;50.922;5.430;2023-07-31T05:49:49;8.80;;;3.77;;
36001;SDS011;22070;50.922;5.430;2023-07-31T05:52:17;8.82;;;3.63;;
36001;SDS011;22070;50.922;5.430;2023-07-31T05:54:43;8.10;;;3.50;;
36001;SDS011;22070;50.922;5.430;2023-07-31T05:57:11;9.38;;;3.47;;
36001;SDS011;22070;50.922;5.430;2023-07-31T05:59:36;6.33;;;3.40;;
36001;SDS011;22070;50.922;5.430;2023-07-31T06:02:02;9.07;;;3.43;;
36001;SDS011;22070;50.922;5.430;2023-07-31T06:04:28;10.07;;;4.00;;
36001;SDS011;22070;50.922;5.430;2023-07-31T06:06:53;6.37;;;3.13;;
36001;SDS011;22070;50.922;5.430;2023-07-31T06:09:19;5.40;;;3.03;;
36001;SDS011;22070;50.922;5.430;2023-07-31T06:11:48;5.88;;;3.42;;
36001;SDS011;22070;50.922;5.430;2023-07-31T06:14:13;10.13;;;3.43;;
36001;SDS011;22070;50.922;5.430;2023-07-31T06:16:39;6.50;;;3.00;;
36001;SDS011;22070;50.922;5.430;2023-07-31T06:19:05;8.30;;;3.10;;
36001;SDS011;22070;50.922;5.430;2023-07-31T06:21:32;7.50;;;3.50;;
36001;SDS011;22070;50.922;5.430;2023-07-31T06:23:58;7.82;;;3.28;;
36001;SDS011;22070;50.922;5.430;2023-07-31T06:26:23;7.73;;;3.57;;
36001;SDS011;22070;50.922;5.430;2023-07-31T06:28:49;7.55;;;3.53;;
36001;SDS011;22070;50.922;5.430;2023-07-31T06:31:15;8.47;;;3.10;;
36001;SDS011;22070;50.922;5.430;2023-07-31T06:33:43;9.40;;;3.35;;
36001;SDS011;22070;50.922;5.430;2023-07-31T06:36:09;11.40;;;3.70;;
36001;SDS011;22070;50.922;5.430;2023-07-31T06:38:35;6.00;;;3.47;;
36001;SDS011;22070;50.922;5.430;2023-07-31T06:41:02;10.55;;;4.43;;
36001;SDS011;22070;50.922;5.430;2023-07-31T06:43:28;9.63;;;3.55;;
36001;SDS011;22070;50.922;5.430;2023-07-31T06:45:54;8.93;;;3.93;;
36001;SDS011;22070;50.922;5.430;2023-07-31T06:48:20;10.40;;;2.73;;
36001;SDS011;22070;50.922;5.430;2023-07-31T06:50:49;10.03;;;3.83;;
36001;SDS011;22070;50.922;5.430;2023-07-31T06:53:14;9.43;;;3.67;;
36001;SDS011;22070;50.922;5.430;2023-07-31T06:55:40;7.10;;;3.43;;
36001;SDS011;22070;50.922;5.430;2023-07-31T06:58:06;7.17;;;3.57;;
36001;SDS011;22070;50.922;5.430;2023-07-31T07:00:31;9.07;;;3.53;;
36001;SDS011;22070;50.922;5.430;2023-07-31T07:02:57;5.23;;;2.73;;
36001;SDS011;22070;50.922;5.430;2023-07-31T07:05:23;10.13;;;4.50;;
36001;SDS011;22070;50.922;5.430;2023-07-31T07:07:49;7.00;;;3.63;;
36001;SDS011;22070;50.922;5.430;2023-07-31T07:10:16;7.57;;;3.80;;
36001;SDS011;22070;50.922;5.430;2023-07-31T07:12:42;7.10;;;3.97;;
36001;SDS011;22070;50.922;5.430;2023-07-31T07:15:07;8.93;;;4.00;;
36001;SDS011;22070;50.922;5.430;2023-07-31T07:17:34;10.25;;;4.25;;
36001;SDS011;22070;50.922;5.430;2023-07-31T07:19:59;8.60;;;3.90;;
36001;SDS011;22070;50.922;5.430;2023-07-31T07:22:26;7.03;;;3.53;;
36001;SDS011;22070;50.922;5.430;2023-07-31T07:24:52;6.20;;;3.03;;
36001;SDS011;22070;50.922;5.430;2023-07-31T07:27:18;9.45;;;3.85;;
36001;SDS011;22070;50.922;5.430;2023-07-31T07:29:44;8.57;;;3.70;;
36001;SDS011;22070;50.922;5.430;2023-07-31T07:32:10;8.38;;;4.22;;
36001;SDS011;22070;50.922;5.430;2023-07-31T07:34:37;8.48;;;3.83;;
36001;SDS011;22070;50.922;5.430;2023-07-31T07:37:02;9.17;;;3.87;;
36001;SDS011;22070;50.922;5.430;2023-07-31T07:39:28;8.43;;;3.77;;
36001;SDS011;22070;50.922;5.430;2023-07-31T07:41:54;6.23;;;3.47;;
36001;SDS011;22070;50.922;5.430;2023-07-31T07:44:19;7.43;;;3.83;;
36001;SDS011;22070;50.922;5.430;2023-07-31T07:46:45;5.60;;;3.80;;
36001;SDS011;22070;50.922;5.430;2023-07-31T07:49:10;4.80;;;3.83;;
36001;SDS011;22070;50.922;5.430;2023-07-31T07:51:36;6.57;;;3.00;;
36001;SDS011;22070;50.922;5.430;2023-07-31T07:54:02;6.10;;;3.10;;
36001;SDS011;22070;50.922;5.430;2023-07-31T07:56:27;7.50;;;3.23;;
36001;SDS011;22070;50.922;5.430;2023-07-31T07:58:54;8.50;;;3.60;;
36001;SDS011;22070;50.922;5.430;2023-07-31T08:01:20;7.22;;;3.35;;
36001;SDS011;22070;50.922;5.430;2023-07-31T08:03:46;7.33;;;3.43;;
36001;SDS011;22070;50.922;5.430;2023-07-31T08:06:12;4.43;;;2.90;;
36001;SDS011;22070;50.922;5.430;2023-07-31T08:08:38;10.27;;;3.57;;
36001;SDS011;22070;50.922;5.430;2023-07-31T08:11:03;6.70;;;3.10;;
36001;SDS011;22070;50.922;5.430;2023-07-31T08:13:29;8.00;;;3.13;;
36001;SDS011;22070;50.922;5.430;2023-07-31T08:15:55;6.30;;;2.83;;
36001;SDS011;22070;50.922;5.430;2023-07-31T08:18:21;5.00;;;2.87;;
36001;SDS011;22070;50.922;5.430;2023-07-31T08:20:46;4.90;;;2.90;;
36001;SDS011;22070;50.922;5.430;2023-07-31T08:23:12;6.47;;;3.50;;
36001;SDS011;22070;50.922;5.430;2023-07-31T08:25:38;4.70;;;2.20;;
36001;SDS011;22070;50.922;5.430;2023-07-31T08:28:04;5.03;;;2.77;;
36001;SDS011;22070;50.922;5.430;2023-07-31T08:30:30;10.45;;;3.47;;
36001;SDS011;22070;50.922;5.430;2023-07-31T08:32:56;7.38;;;3.88;;
36001;SDS011;22070;50.922;5.430;2023-07-31T08:35:23;9.33;;;3.67;;
36001;SDS011;22070;50.922;5.430;2023-07-31T08:37:50;11.07;;;3.85;;
36001;SDS011;22070;50.922;5.430;2023-07-31T08:40:15;7.83;;;3.80;;
36001;SDS011;22070;50.922;5.430;2023-07-31T08:42:45;9.57;;;3.93;;
36001;SDS011;22070;50.922;5.430;2023-07-31T08:45:15;8.93;;;3.45;;
36001;SDS011;22070;50.922;5.430;2023-07-31T08:47:45;6.30;;;3.50;;
36001;SDS011;22070;50.922;5.430;2023-07-31T08:50:16;7.47;;;3.20;;
36001;SDS011;22070;50.922;5.430;2023-07-31T08:52:43;9.75;;;3.55;;
36001;SDS011;22070;50.922;5.430;2023-07-31T08:55:10;7.30;;;3.42;;
36001;SDS011;22070;50.922;5.430;2023-07-31T08:57:37;9.57;;;3.87;;
36001;SDS011;22070;50.922;5.430;2023-07-31T09:00:04;6.05;;;3.22;;
36001;SDS011;22070;50.922;5.430;2023-07-31T09:02:34;7.47;;;3.40;;
36001;SDS011;22070;50.922;5.430;2023-07-31T09:05:06;5.93;;;3.50;;
36001;SDS011;22070;50.922;5.430;2023-07-31T09:07:36;10.23;;;4.07;;
36001;SDS011;22070;50.922;5.430;2023-07-31T09:10:03;5.38;;;2.80;;
36001;SDS011;22070;50.922;5.430;2023-07-31T09:12:29;9.32;;;2.97;;
36001;SDS011;22070;50.922;5.430;2023-07-31T09:14:59;7.78;;;2.92;;
36001;SDS011;22070;50.922;5.430;2023-07-31T09:17:29;5.38;;;3.00;;
36001;SDS011;22070;50.922;5.430;2023-07-31T09:20:18;8.52;;;3.28;;
36001;SDS011;22070;50.922;5.430;2023-07-31T09:22:45;5.45;;;3.28;;
36001;SDS011;22070;50.922;5.430;2023-07-31T09:28:03;7.00;;;3.03;;
36001;SDS011;22070;50.922;5.430;2023-07-31T09:30:30;5.80;;;2.78;;
36001;SDS011;22070;50.922;5.430;2023-07-31T09:33:00;4.90;;;2.70;;
36001;SDS011;22070;50.922;5.430;2023-07-31T09:35:29;3.67;;;2.50;;
36001;SDS011;22070;50.922;5.430;2023-07-31T09:38:00;4.28;;;2.20;;
36001;SDS011;22070;50.922;5.430;2023-07-31T09:40:32;3.80;;;2.05;;
36001;SDS011;22070;50.922;5.430;2023-07-31T09:43:00;3.50;;;1.90;;
36001;SDS011;22070;50.922;5.430;2023-07-31T09:45:28;5.13;;;2.00;;
36001;SDS011;22070;50.922;5.430;2023-07-31T09:50:22;3.03;;;1.45;;
36001;SDS011;22070;50.922;5.430;2023-07-31T09:52:50;3.85;;;1.70;;
36001;SDS011;22070;50.922;5.430;2023-07-31T09:57:48;3.88;;;1.90;;
36001;SDS011;22070;50.922;5.430;2023-07-31T10:00:18;4.40;;;1.80;;
36001;SDS011;22070;50.922;5.430;2023-07-31T10:02:45;2.58;;;1.70;;
36001;SDS011;22070;50.922;5.430;2023-07-31T10:05:12;2.28;;;1.80;;
36001;SDS011;22070;50.922;5.430;2023-07-31T10:07:50;2.80;;;1.67;;
36001;SDS011;22070;50.922;5.430;2023-07-31T10:10:19;3.83;;;1.80;;
36001;SDS011;22070;50.922;5.430;2023-07-31T10:12:47;3.80;;;1.60;;
36001;SDS011;22070;50.922;5.430;2023-07-31T10:15:14;1.98;;;1.77;;
36001;SDS011;22070;50.922;5.430;2023-07-31T10:17:40;2.75;;;1.77;;
36001;SDS011;22070;50.922;5.430;2023-07-31T10:20:06;2.60;;;1.57;;
36001;SDS011;22070;50.922;5.430;2023-07-31T10:22:33;3.08;;;2.13;;
36001;SDS011;22070;50.922;5.430;2023-07-31T10:24:59;4.85;;;2.35;;
36001;SDS011;22070;50.922;5.430;2023-07-31T10:27:26;2.70;;;2.17;;
36001;SDS011;22070;50.922;5.430;2023-07-31T10:29:53;3.55;;;1.90;;
36001;SDS011;22070;50.922;5.430;2023-07-31T10:32:20;4.45;;;2.22;;
36001;SDS011;22070;50.922;5.430;2023-07-31T10:34:47;7.88;;;2.60;;
36001;SDS011;22070;50.922;5.430;2023-07-31T10:42:30;7.28;;;2.90;;
36001;SDS011;22070;50.922;5.430;2023-07-31T10:44:57;8.10;;;2.95;;
36001;SDS011;22070;50.922;5.430;2023-07-31T10:47:24;6.72;;;3.30;;
36001;SDS011;22070;50.922;5.430;2023-07-31T10:49:50;5.87;;;3.80;;
36001;SDS011;22070;50.922;5.430;2023-07-31T10:52:19;6.73;;;3.70;;
36001;SDS011;22070;50.922;5.430;2023-07-31T10:55:12;9.02;;;3.90;;
36001;SDS011;22070;50.922;5.430;2023-07-31T10:57:47;8.40;;;3.80;;
36001;SDS011;22070;50.922;5.430;2023-07-31T11:00:20;6.70;;;3.60;;
36001;SDS011;22070;50.922;5.430;2023-07-31T11:02:57;6.47;;;3.47;;
36001;SDS011;22070;50.922;5.430;2023-07-31T11:05:49;6.97;;;3.83;;
36001;SDS011;22070;50.922;5.430;2023-07-31T11:08:25;4.25;;;3.03;;
36001;SDS011;22070;50.922;5.430;2023-07-31T11:11:12;7.82;;;4.00;;
36001;SDS011;22070;50.922;5.430;2023-07-31T11:16:04;6.83;;;3.90;;
36001;SDS011;22070;50.922;5.430;2023-07-31T11:18:30;5.23;;;3.90;;
36001;SDS011;22070;50.922;5.430;2023-07-31T11:20:56;8.47;;;3.73;;
36001;SDS011;22070;50.922;5.430;2023-07-31T11:23:22;5.93;;;3.77;;
36001;SDS011;22070;50.922;5.430;2023-07-31T11:25:48;8.80;;;3.38;;
36001;SDS011;22070;50.922;5.430;2023-07-31T11:28:16;6.82;;;3.60;;
36001;SDS011;22070;50.922;5.430;2023-07-31T11:30:43;7.15;;;4.03;;
36001;SDS011;22070;50.922;5.430;2023-07-31T11:33:10;5.82;;;3.78;;
36001;SDS011;22070;50.922;5.430;2023-07-31T11:35:47;7.18;;;4.00;;
36001;SDS011;22070;50.922;5.430;2023-07-31T11:40:56;6.75;;;3.80;;
36001;SDS011;22070;50.922;5.430;2023-07-31T11:43:24;7.72;;;3.90;;
36001;SDS011;22070;50.922;5.430;2023-07-31T11:45:52;8.40;;;3.47;;
36001;SDS011;22070;50.922;5.430;2023-07-31T11:48:28;5.93;;;3.53;;
36001;SDS011;22070;50.922;5.430;2023-07-31T11:51:03;9.95;;;4.00;;
36001;SDS011;22070;50.922;5.430;2023-07-31T11:53:31;6.13;;;3.50;;
36001;SDS011;22070;50.922;5.430;2023-07-31T11:56:13;9.10;;;3.80;;
36001;SDS011;22070;50.922;5.430;2023-07-31T11:58:41;7.03;;;3.38;;
36001;SDS011;22070;50.922;5.430;2023-07-31T12:01:10;10.07;;;4.22;;
36001;SDS011;22070;50.922;5.430;2023-07-31T12:03:36;6.10;;;3.57;;
36001;SDS011;22070;50.922;5.430;2023-07-31T12:06:02;7.03;;;3.67;;
36001;SDS011;22070;50.922;5.430;2023-07-31T12:08:29;11.17;;;3.47;;
36001;SDS011;22070;50.922;5.430;2023-07-31T12:11:01;4.75;;;3.60;;
36001;SDS011;22070;50.922;5.430;2023-07-31T12:13:31;7.63;;;3.50;;
36001;SDS011;22070;50.922;5.430;2023-07-31T12:16:01;5.65;;;3.33;;
36001;SDS011;22070;50.922;5.430;2023-07-31T12:18:29;6.40;;;3.50;;
36001;SDS011;22070;50.922;5.430;2023-07-31T12:21:00;8.27;;;3.92;;
36001;SDS011;22070;50.922;5.430;2023-07-31T12:23:28;10.10;;;6.55;;
36001;SDS011;22070;50.922;5.430;2023-07-31T12:28:40;15.38;;;7.68;;
36001;SDS011;22070;50.922;5.430;2023-07-31T12:31:09;9.07;;;4.03;;
36001;SDS011;22070;50.922;5.430;2023-07-31T12:33:37;7.50;;;3.47;;
36001;SDS011;22070;50.922;5.430;2023-07-31T12:36:04;8.18;;;3.85;;
36001;SDS011;22070;50.922;5.430;2023-07-31T12:38:34;5.88;;;3.60;;
36001;SDS011;22070;50.922;5.430;2023-07-31T12:41:00;5.50;;;3.50;;
36001;SDS011;22070;50.922;5.430;2023-07-31T12:43:26;10.50;;;3.50;;
36001;SDS011;22070;50.922;5.430;2023-07-31T12:45:53;6.10;;;3.13;;
36001;SDS011;22070;50.922;5.430;2023-07-31T12:48:20;6.78;;;3.17;;
36001;SDS011;22070;50.922;5.430;2023-07-31T12:50:45;7.00;;;3.73;;
36001;SDS011;22070;50.922;5.430;2023-07-31T12:53:11;5.43;;;3.50;;
36001;SDS011;22070;50.922;5.430;2023-07-31T12:55:37;4.43;;;2.67;;
36001;SDS011;22070;50.922;5.430;2023-07-31T12:58:02;4.50;;;3.33;;
36001;SDS011;22070;50.922;5.430;2023-07-31T13:00:28;5.50;;;3.33;;
36001;SDS011;22070;50.922;5.430;2023-07-31T13:02:54;6.23;;;3.10;;
36001;SDS011;22070;50.922;5.430;2023-07-31T13:05:20;5.10;;;3.60;;
36001;SDS011;22070;50.922;5.430;2023-07-31T13:07:46;6.43;;;3.47;;
36001;SDS011;22070;50.922;5.430;2023-07-31T13:10:12;8.00;;;3.75;;
36001;SDS011;22070;50.922;5.430;2023-07-31T13:12:38;4.47;;;3.67;;
36001;SDS011;22070;50.922;5.430;2023-07-31T13:15:04;7.70;;;3.97;;
36001;SDS011;22070;50.922;5.430;2023-07-31T13:19:56;7.77;;;3.90;;
36001;SDS011;22070;50.922;5.430;2023-07-31T13:22:22;10.70;;;4.00;;
36001;SDS011;22070;50.922;5.430;2023-07-31T13:24:47;10.13;;;4.30;;
36001;SDS011;22070;50.922;5.430;2023-07-31T13:27:13;16.20;;;4.67;;
36001;SDS011;22070;50.922;5.430;2023-07-31T13:29:43;9.48;;;3.85;;
36001;SDS011;22070;50.922;5.430;2023-07-31T13:32:09;5.43;;;4.05;;
36001;SDS011;22070;50.922;5.430;2023-07-31T13:34:35;10.33;;;4.23;;
36001;SDS011;22070;50.922;5.430;2023-07-31T13:37:00;7.93;;;3.87;;
36001;SDS011;22070;50.922;5.430;2023-07-31T13:39:26;8.47;;;4.60;;
36001;SDS011;22070;50.922;5.430;2023-07-31T13:41:52;8.27;;;4.17;;
36001;SDS011;22070;50.922;5.430;2023-07-31T13:44:17;6.60;;;4.00;;
36001;SDS011;22070;50.922;5.430;2023-07-31T13:46:43;8.07;;;4.10;;
36001;SDS011;22070;50.922;5.430;2023-07-31T13:49:08;6.77;;;3.53;;
36001;SDS011;22070;50.922;5.430;2023-07-31T13:51:34;6.83;;;3.33;;
36001;SDS011;22070;50.922;5.430;2023-07-31T13:54:01;11.63;;;3.77;;
36001;SDS011;22070;50.922;5.430;2023-07-31T13:56:26;10.70;;;4.13;;
36001;SDS011;22070;50.922;5.430;2023-07-31T13:58:52;7.93;;;4.13;;
36001;SDS011;22070;50.922;5.430;2023-07-31T14:01:18;8.00;;;3.50;;
36001;SDS011;22070;50.922;5.430;2023-07-31T14:03:43;9.00;;;3.87;;
36001;SDS011;22070;50.922;5.430;2023-07-31T14:06:09;10.67;;;4.67;;
36001;SDS011;22070;50.922;5.430;2023-07-31T14:08:35;7.90;;;3.73;;
36001;SDS011;22070;50.922;5.430;2023-07-31T14:11:00;8.37;;;4.10;;
36001;SDS011;22070;50.922;5.430;2023-07-31T14:13:26;7.47;;;4.20;;
36001;SDS011;22070;50.922;5.430;2023-07-31T14:15:51;6.60;;;3.60;;
36001;SDS011;22070;50.922;5.430;2023-07-31T14:18:18;8.02;;;3.78;;
36001;SDS011;22070;50.922;5.430;2023-07-31T14:20:43;8.60;;;4.23;;
36001;SDS011;22070;50.922;5.430;2023-07-31T14:23:09;8.00;;;3.80;;
36001;SDS011;22070;50.922;5.430;2023-07-31T14:25:35;6.27;;;4.00;;
36001;SDS011;22070;50.922;5.430;2023-07-31T14:28:00;10.13;;;3.40;;
36001;SDS011;22070;50.922;5.430;2023-07-31T14:30:26;9.10;;;3.40;;
36001;SDS011;22070;50.922;5.430;2023-07-31T14:32:51;8.47;;;3.90;;
36001;SDS011;22070;50.922;5.430;2023-07-31T14:35:17;7.73;;;3.47;;
36001;SDS011;22070;50.922;5.430;2023-07-31T14:37:43;11.47;;;3.87;;
36001;SDS011;22070;50.922;5.430;2023-07-31T14:40:10;8.30;;;4.18;;
36001;SDS011;22070;50.922;5.430;2023-07-31T14:42:37;8.18;;;4.22;;
36001;SDS011;22070;50.922;5.430;2023-07-31T14:45:04;12.25;;;4.35;;
36001;SDS011;22070;50.922;5.430;2023-07-31T14:47:30;6.45;;;4.05;;
36001;SDS011;22070;50.922;5.430;2023-07-31T14:49:57;12.90;;;4.03;;
36001;SDS011;22070;50.922;5.430;2023-07-31T14:52:22;7.50;;;3.70;;
36001;SDS011;22070;50.922;5.430;2023-07-31T14:54:48;3.43;;;2.67;;
36001;SDS011;22070;50.922;5.430;2023-07-31T14:57:14;9.47;;;4.17;;
36001;SDS011;22070;50.922;5.430;2023-07-31T14:59:40;7.63;;;3.63;;
36001;SDS011;22070;50.922;5.430;2023-07-31T15:02:06;5.40;;;3.47;;
36001;SDS011;22070;50.922;5.430;2023-07-31T15:04:33;3.65;;;2.58;;
36001;SDS011;22070;50.922;5.430;2023-07-31T15:06:59;3.60;;;2.53;;
36001;SDS011;22070;50.922;5.430;2023-07-31T15:09:24;4.17;;;2.43;;
36001;SDS011;22070;50.922;5.430;2023-07-31T15:11:50;3.77;;;2.30;;
36001;SDS011;22070;50.922;5.430;2023-07-31T15:14:16;5.17;;;2.47;;